sensor_id;sensor_type;location;lat;lon;timestamp;P1;durP1;ratioP1;P2;durP2;ratioP2
8230;SDS011;4156;50.908;6.974;2022-08-14T00:02:13;2.40;;;2.20;;
8230;SDS011;4156;50.908;6.974;2022-08-14T00:04:39;3.35;;;2.42;;
8230;SDS011;4156;50.908;6.974;2022-08-14T00:07:05;3.38;;;2.47;;
8230;SDS011;4156;50.908;6.974;2022-08-14T00:09:31;3.28;;;2.40;;
8230;SDS011;4156;50.908;6.974;2022-08-14T00:11:57;2.60;;;2.30;;
8230;SDS011;4156;50.908;6.974;2022-08-14T00:14:23;10.85;;;3.42;;
8230;SDS011;4156;50.908;6.974;2022-08-14T00:16:51;2.53;;;2.33;;
8230;SDS011;4156;50.908;6.974;2022-08-14T00:19:16;3.80;;;2.42;;
8230;SDS011;4156;50.908;6.974;2022-08-14T00:21:42;4.80;;;2.75;;
8230;SDS011;4156;50.908;6.974;2022-08-14T00:24:08;3.22;;;2.80;;
8230;SDS011;4156;50.908;6.974;2022-08-14T00:26:33;3.55;;;2.30;;
8230;SDS011;4156;50.908;6.974;2022-08-14T00:28:59;3.13;;;2.75;;
8230;SDS011;4156;50.908;6.974;2022-08-14T00:31:24;4.03;;;2.80;;
8230;SDS011;4156;50.908;6.974;2022-08-14T00:33:51;3.15;;;2.72;;
8230;SDS011;4156;50.908;6.974;2022-08-14T00:36:17;3.58;;;2.63;;
8230;SDS011;4156;50.908;6.974;2022-08-14T00:38:42;3.85;;;2.85;;
8230;SDS011;4156;50.908;6.974;2022-08-14T00:41:08;2.92;;;2.42;;
8230;SDS011;4156;50.908;6.974;2022-08-14T00:43:34;3.25;;;2.70;;
8230;SDS011;4156;50.908;6.974;2022-08-14T00:46:04;2.45;;;2.25;;
8230;SDS011;4156;50.908;6.974;2022-08-14T00:48:33;3.83;;;2.53;;
8230;SDS011;4156;50.908;6.974;2022-08-14T00:50:59;3.88;;;2.67;;
8230;SDS011;4156;50.908;6.974;2022-08-14T00:53:25;2.88;;;2.58;;
8230;SDS011;4156;50.908;6.974;2022-08-14T00:55:51;3.50;;;2.60;;
8230;SDS011;4156;50.908;6.974;2022-08-14T00:58:20;5.10;;;2.95;;
8230;SDS011;4156;50.908;6.974;2022-08-14T01:00:55;3.25;;;2.58;;
8230;SDS011;4156;50.908;6.974;2022-08-14T01:03:25;3.63;;;2.55;;
8230;SDS011;4156;50.908;6.974;2022-08-14T01:05:53;3.63;;;2.40;;
8230;SDS011;4156;50.908;6.974;2022-08-14T01:08:20;4.25;;;2.40;;
8230;SDS011;4156;50.908;6.974;2022-08-14T01:10:50;4.50;;;2.80;;
8230;SDS011;4156;50.908;6.974;2022-08-14T01:13:21;4.70;;;2.88;;
8230;SDS011;4156;50.908;6.974;2022-08-14T01:15:59;3.25;;;2.50;;
8230;SDS011;4156;50.908;6.974;2022-08-14T01:18:27;3.35;;;3.05;;
8230;SDS011;4156;50.908;6.974;2022-08-14T01:21:13;3.90;;;2.95;;
8230;SDS011;4156;50.908;6.974;2022-08-14T01:23:42;4.90;;;3.03;;
8230;SDS011;4156;50.908;6.974;2022-08-14T01:26:14;3.40;;;3.10;;
8230;SDS011;4156;50.908;6.974;2022-08-14T01:28:45;4.82;;;2.83;;
8230;SDS011;4156;50.908;6.974;2022-08-14T01:31:16;3.80;;;2.85;;
8230;SDS011;4156;50.908;6.974;2022-08-14T01:33:43;3.08;;;2.78;;
8230;SDS011;4156;50.908;6.974;2022-08-14T01:36:11;3.55;;;3.25;;
8230;SDS011;4156;50.908;6.974;2022-08-14T01:38:39;3.25;;;2.70;;
8230;SDS011;4156;50.908;6.974;2022-08-14T01:41:07;3.22;;;2.92;;
8230;SDS011;4156;50.908;6.974;2022-08-14T01:43:45;3.92;;;2.80;;
8230;SDS011;4156;50.908;6.974;2022-08-14T01:46:14;4.75;;;3.28;;
8230;SDS011;4156;50.908;6.974;2022-08-14T01:48:41;3.80;;;2.90;;
8230;SDS011;4156;50.908;6.974;2022-08-14T01:51:09;4.38;;;2.75;;
8230;SDS011;4156;50.908;6.974;2022-08-14T01:53:38;3.33;;;3.03;;
8230;SDS011;4156;50.908;6.974;2022-08-14T01:56:05;4.28;;;3.30;;
8230;SDS011;4156;50.908;6.974;2022-08-14T01:58:31;4.07;;;3.50;;
8230;SDS011;4156;50.908;6.974;2022-08-14T02:00:57;3.72;;;3.17;;
8230;SDS011;4156;50.908;6.974;2022-08-14T02:03:24;5.95;;;3.10;;
8230;SDS011;4156;50.908;6.974;2022-08-14T02:05:54;3.30;;;2.97;;
8230;SDS011;4156;50.908;6.974;2022-08-14T02:08:22;5.35;;;3.70;;
8230;SDS011;4156;50.908;6.974;2022-08-14T02:10:54;3.50;;;3.03;;
8230;SDS011;4156;50.908;6.974;2022-08-14T02:13:40;5.40;;;3.78;;
8230;SDS011;4156;50.908;6.974;2022-08-14T02:16:08;3.35;;;2.97;;
8230;SDS011;4156;50.908;6.974;2022-08-14T02:18:34;6.35;;;3.08;;
8230;SDS011;4156;50.908;6.974;2022-08-14T02:21:00;3.83;;;3.35;;
8230;SDS011;4156;50.908;6.974;2022-08-14T02:23:28;3.47;;;3.17;;
8230;SDS011;4156;50.908;6.974;2022-08-14T02:25:53;3.63;;;3.25;;
8230;SDS011;4156;50.908;6.974;2022-08-14T02:28:19;3.50;;;3.10;;
8230;SDS011;4156;50.908;6.974;2022-08-14T02:30:44;3.80;;;2.95;;
8230;SDS011;4156;50.908;6.974;2022-08-14T02:33:10;4.45;;;3.15;;
8230;SDS011;4156;50.908;6.974;2022-08-14T02:35:38;3.80;;;2.78;;
8230;SDS011;4156;50.908;6.974;2022-08-14T02:38:06;4.07;;;2.80;;
8230;SDS011;4156;50.908;6.974;2022-08-14T02:40:32;4.75;;;3.17;;
8230;SDS011;4156;50.908;6.974;2022-08-14T02:42:58;3.25;;;2.80;;
8230;SDS011;4156;50.908;6.974;2022-08-14T02:45:24;3.70;;;2.80;;
8230;SDS011;4156;50.908;6.974;2022-08-14T02:47:52;4.22;;;2.72;;
8230;SDS011;4156;50.908;6.974;2022-08-14T02:50:18;2.80;;;2.33;;
8230;SDS011;4156;50.908;6.974;2022-08-14T02:52:45;3.30;;;2.92;;
8230;SDS011;4156;50.908;6.974;2022-08-14T02:55:10;3.35;;;2.92;;
8230;SDS011;4156;50.908;6.974;2022-08-14T02:57:36;3.20;;;2.80;;
8230;SDS011;4156;50.908;6.974;2022-08-14T03:00:03;3.20;;;2.90;;
8230;SDS011;4156;50.908;6.974;2022-08-14T03:02:29;3.75;;;3.10;;
8230;SDS011;4156;50.908;6.974;2022-08-14T03:04:57;7.65;;;3.55;;
8230;SDS011;4156;50.908;6.974;2022-08-14T03:07:23;3.55;;;3.17;;
8230;SDS011;4156;50.908;6.974;2022-08-14T03:09:49;4.25;;;3.17;;
8230;SDS011;4156;50.908;6.974;2022-08-14T03:12:15;5.00;;;3.05;;
8230;SDS011;4156;50.908;6.974;2022-08-14T03:14:40;3.60;;;3.30;;
8230;SDS011;4156;50.908;6.974;2022-08-14T03:17:13;5.80;;;3.22;;
8230;SDS011;4156;50.908;6.974;2022-08-14T03:19:39;4.03;;;3.10;;
8230;SDS011;4156;50.908;6.974;2022-08-14T03:22:05;3.78;;;3.35;;
8230;SDS011;4156;50.908;6.974;2022-08-14T03:24:31;4.40;;;3.45;;
8230;SDS011;4156;50.908;6.974;2022-08-14T03:26:56;4.68;;;3.38;;
8230;SDS011;4156;50.908;6.974;2022-08-14T03:29:22;3.72;;;3.33;;
8230;SDS011;4156;50.908;6.974;2022-08-14T03:31:48;5.10;;;3.35;;
8230;SDS011;4156;50.908;6.974;2022-08-14T03:34:15;3.80;;;3.40;;
8230;SDS011;4156;50.908;6.974;2022-08-14T03:36:42;6.53;;;3.65;;
8230;SDS011;4156;50.908;6.974;2022-08-14T03:39:08;3.78;;;3.17;;
8230;SDS011;4156;50.908;6.974;2022-08-14T03:41:35;5.75;;;3.20;;
8230;SDS011;4156;50.908;6.974;2022-08-14T03:44:01;5.63;;;3.75;;
8230;SDS011;4156;50.908;6.974;2022-08-14T03:46:31;3.90;;;3.20;;
8230;SDS011;4156;50.908;6.974;2022-08-14T03:48:59;3.78;;;3.38;;
8230;SDS011;4156;50.908;6.974;2022-08-14T03:51:27;4.97;;;3.25;;
8230;SDS011;4156;50.908;6.974;2022-08-14T03:53:56;6.65;;;3.58;;
8230;SDS011;4156;50.908;6.974;2022-08-14T03:56:24;4.05;;;3.47;;
8230;SDS011;4156;50.908;6.974;2022-08-14T03:58:52;4.90;;;3.88;;
8230;SDS011;4156;50.908;6.974;2022-08-14T04:01:22;4.43;;;4.03;;
8230;SDS011;4156;50.908;6.974;2022-08-14T04:03:49;4.55;;;3.75;;
8230;SDS011;4156;50.908;6.974;2022-08-14T04:06:16;4.90;;;3.50;;
8230;SDS011;4156;50.908;6.974;2022-08-14T04:08:44;4.73;;;3.63;;
8230;SDS011;4156;50.908;6.974;2022-08-14T04:11:10;6.30;;;3.73;;
8230;SDS011;4156;50.908;6.974;2022-08-14T04:13:37;5.32;;;3.97;;
8230;SDS011;4156;50.908;6.974;2022-08-14T04:16:07;5.37;;;3.80;;
8230;SDS011;4156;50.908;6.974;2022-08-14T04:18:38;5.93;;;3.92;;
8230;SDS011;4156;50.908;6.974;2022-08-14T04:21:05;6.25;;;3.78;;
8230;SDS011;4156;50.908;6.974;2022-08-14T04:23:31;4.80;;;3.30;;
8230;SDS011;4156;50.908;6.974;2022-08-14T04:25:57;4.87;;;3.80;;
8230;SDS011;4156;50.908;6.974;2022-08-14T04:28:23;4.37;;;3.97;;
8230;SDS011;4156;50.908;6.974;2022-08-14T04:30:50;4.90;;;3.60;;
8230;SDS011;4156;50.908;6.974;2022-08-14T04:33:15;4.73;;;3.93;;
8230;SDS011;4156;50.908;6.974;2022-08-14T04:35:41;6.10;;;3.70;;
8230;SDS011;4156;50.908;6.974;2022-08-14T04:38:07;5.55;;;3.60;;
8230;SDS011;4156;50.908;6.974;2022-08-14T04:40:52;4.67;;;3.50;;
8230;SDS011;4156;50.908;6.974;2022-08-14T04:43:37;4.77;;;4.27;;
8230;SDS011;4156;50.908;6.974;2022-08-14T04:46:08;5.23;;;3.90;;
8230;SDS011;4156;50.908;6.974;2022-08-14T04:48:37;5.10;;;3.77;;
8230;SDS011;4156;50.908;6.974;2022-08-14T04:51:04;4.60;;;3.80;;
8230;SDS011;4156;50.908;6.974;2022-08-14T04:53:32;5.22;;;4.15;;
8230;SDS011;4156;50.908;6.974;2022-08-14T04:55:59;6.07;;;4.73;;
8230;SDS011;4156;50.908;6.974;2022-08-14T04:58:25;4.20;;;3.80;;
8230;SDS011;4156;50.908;6.974;2022-08-14T05:00:53;5.15;;;4.03;;
8230;SDS011;4156;50.908;6.974;2022-08-14T05:03:21;6.68;;;4.40;;
8230;SDS011;4156;50.908;6.974;2022-08-14T05:05:49;5.40;;;4.35;;
8230;SDS011;4156;50.908;6.974;2022-08-14T05:08:17;4.75;;;4.25;;
8230;SDS011;4156;50.908;6.974;2022-08-14T05:10:47;4.95;;;3.55;;
8230;SDS011;4156;50.908;6.974;2022-08-14T05:13:19;6.07;;;3.90;;
8230;SDS011;4156;50.908;6.974;2022-08-14T05:15:48;4.63;;;4.10;;
8230;SDS011;4156;50.908;6.974;2022-08-14T05:18:17;4.22;;;3.83;;
8230;SDS011;4156;50.908;6.974;2022-08-14T05:20:45;4.90;;;4.33;;
8230;SDS011;4156;50.908;6.974;2022-08-14T05:23:13;5.07;;;3.93;;
8230;SDS011;4156;50.908;6.974;2022-08-14T05:25:44;6.95;;;4.20;;
8230;SDS011;4156;50.908;6.974;2022-08-14T05:28:19;4.90;;;3.95;;
8230;SDS011;4156;50.908;6.974;2022-08-14T05:30:48;4.85;;;4.20;;
8230;SDS011;4156;50.908;6.974;2022-08-14T05:33:16;6.97;;;4.50;;
8230;SDS011;4156;50.908;6.974;2022-08-14T05:35:44;5.90;;;4.27;;
8230;SDS011;4156;50.908;6.974;2022-08-14T05:38:11;5.70;;;4.70;;
8230;SDS011;4156;50.908;6.974;2022-08-14T05:40:41;4.53;;;4.13;;
8230;SDS011;4156;50.908;6.974;2022-08-14T05:43:08;5.50;;;5.00;;
8230;SDS011;4156;50.908;6.974;2022-08-14T05:45:34;5.82;;;4.18;;
8230;SDS011;4156;50.908;6.974;2022-08-14T05:48:01;4.80;;;4.30;;
8230;SDS011;4156;50.908;6.974;2022-08-14T05:50:28;5.50;;;4.40;;
8230;SDS011;4156;50.908;6.974;2022-08-14T05:52:53;5.20;;;4.23;;
8230;SDS011;4156;50.908;6.974;2022-08-14T05:55:20;6.55;;;4.15;;
8230;SDS011;4156;50.908;6.974;2022-08-14T05:57:49;5.07;;;4.10;;
8230;SDS011;4156;50.908;6.974;2022-08-14T06:00:18;8.65;;;5.05;;
8230;SDS011;4156;50.908;6.974;2022-08-14T06:02:47;6.40;;;4.07;;
8230;SDS011;4156;50.908;6.974;2022-08-14T06:05:12;4.78;;;4.28;;
8230;SDS011;4156;50.908;6.974;2022-08-14T06:07:38;4.68;;;4.20;;
8230;SDS011;4156;50.908;6.974;2022-08-14T06:10:04;4.90;;;4.40;;
8230;SDS011;4156;50.908;6.974;2022-08-14T06:12:31;5.95;;;4.88;;
8230;SDS011;4156;50.908;6.974;2022-08-14T06:14:57;4.65;;;4.20;;
8230;SDS011;4156;50.908;6.974;2022-08-14T06:17:23;5.47;;;4.93;;
8230;SDS011;4156;50.908;6.974;2022-08-14T06:19:49;4.57;;;4.00;;
8230;SDS011;4156;50.908;6.974;2022-08-14T06:22:15;5.07;;;4.30;;
8230;SDS011;4156;50.908;6.974;2022-08-14T06:24:40;4.50;;;4.10;;
8230;SDS011;4156;50.908;6.974;2022-08-14T06:27:06;4.28;;;3.88;;
8230;SDS011;4156;50.908;6.974;2022-08-14T06:29:31;5.95;;;4.13;;
8230;SDS011;4156;50.908;6.974;2022-08-14T06:31:58;4.35;;;3.85;;
8230;SDS011;4156;50.908;6.974;2022-08-14T06:34:24;4.38;;;3.67;;
8230;SDS011;4156;50.908;6.974;2022-08-14T06:36:49;5.80;;;3.70;;
8230;SDS011;4156;50.908;6.974;2022-08-14T06:39:15;3.97;;;3.58;;
8230;SDS011;4156;50.908;6.974;2022-08-14T06:41:40;5.82;;;4.35;;
8230;SDS011;4156;50.908;6.974;2022-08-14T06:44:06;4.57;;;3.72;;
8230;SDS011;4156;50.908;6.974;2022-08-14T06:46:32;4.50;;;3.80;;
8230;SDS011;4156;50.908;6.974;2022-08-14T06:48:58;5.28;;;4.03;;
8230;SDS011;4156;50.908;6.974;2022-08-14T06:51:24;4.47;;;3.90;;
8230;SDS011;4156;50.908;6.974;2022-08-14T06:53:49;4.82;;;4.22;;
8230;SDS011;4156;50.908;6.974;2022-08-14T06:56:15;6.78;;;4.28;;
8230;SDS011;4156;50.908;6.974;2022-08-14T06:58:41;4.47;;;3.88;;
8230;SDS011;4156;50.908;6.974;2022-08-14T07:01:06;5.95;;;4.05;;
8230;SDS011;4156;50.908;6.974;2022-08-14T07:03:50;4.88;;;4.18;;
8230;SDS011;4156;50.908;6.974;2022-08-14T07:06:34;4.85;;;4.00;;
8230;SDS011;4156;50.908;6.974;2022-08-14T07:09:00;5.72;;;4.13;;
8230;SDS011;4156;50.908;6.974;2022-08-14T07:11:25;5.43;;;3.78;;
8230;SDS011;4156;50.908;6.974;2022-08-14T07:13:51;4.78;;;4.25;;
8230;SDS011;4156;50.908;6.974;2022-08-14T07:16:17;4.65;;;4.15;;
8230;SDS011;4156;50.908;6.974;2022-08-14T07:18:43;4.65;;;3.60;;
8230;SDS011;4156;50.908;6.974;2022-08-14T07:21:09;4.13;;;3.72;;
8230;SDS011;4156;50.908;6.974;2022-08-14T07:23:35;4.88;;;4.28;;
8230;SDS011;4156;50.908;6.974;2022-08-14T07:26:01;5.00;;;4.30;;
8230;SDS011;4156;50.908;6.974;2022-08-14T07:28:29;6.13;;;4.63;;
8230;SDS011;4156;50.908;6.974;2022-08-14T07:30:57;5.47;;;4.43;;
8230;SDS011;4156;50.908;6.974;2022-08-14T07:33:24;4.45;;;4.00;;
8230;SDS011;4156;50.908;6.974;2022-08-14T07:35:52;4.80;;;4.40;;
8230;SDS011;4156;50.908;6.974;2022-08-14T07:38:20;5.57;;;4.72;;
8230;SDS011;4156;50.908;6.974;2022-08-14T07:40:47;5.28;;;4.53;;
8230;SDS011;4156;50.908;6.974;2022-08-14T07:43:14;5.70;;;4.18;;
8230;SDS011;4156;50.908;6.974;2022-08-14T07:45:40;7.57;;;4.13;;
8230;SDS011;4156;50.908;6.974;2022-08-14T07:48:06;4.88;;;4.00;;
8230;SDS011;4156;50.908;6.974;2022-08-14T07:50:32;4.38;;;3.90;;
8230;SDS011;4156;50.908;6.974;2022-08-14T07:52:58;4.10;;;3.65;;
8230;SDS011;4156;50.908;6.974;2022-08-14T07:55:24;4.00;;;3.50;;
8230;SDS011;4156;50.908;6.974;2022-08-14T07:57:50;4.90;;;4.22;;
8230;SDS011;4156;50.908;6.974;2022-08-14T08:00:17;5.15;;;3.78;;
8230;SDS011;4156;50.908;6.974;2022-08-14T08:02:46;4.88;;;4.38;;
8230;SDS011;4156;50.908;6.974;2022-08-14T08:05:14;6.13;;;4.20;;
8230;SDS011;4156;50.908;6.974;2022-08-14T08:07:41;4.57;;;3.50;;
8230;SDS011;4156;50.908;6.974;2022-08-14T08:10:11;4.22;;;3.83;;
8230;SDS011;4156;50.908;6.974;2022-08-14T08:15:32;4.82;;;3.78;;
8230;SDS011;4156;50.908;6.974;2022-08-14T08:18:00;3.88;;;3.42;;
8230;SDS011;4156;50.908;6.974;2022-08-14T08:20:28;4.45;;;3.70;;
8230;SDS011;4156;50.908;6.974;2022-08-14T08:22:57;4.32;;;3.92;;
8230;SDS011;4156;50.908;6.974;2022-08-14T08:25:24;4.25;;;3.75;;
8230;SDS011;4156;50.908;6.974;2022-08-14T08:30:20;6.07;;;3.97;;
8230;SDS011;4156;50.908;6.974;2022-08-14T08:32:46;4.45;;;3.92;;
8230;SDS011;4156;50.908;6.974;2022-08-14T08:35:19;5.13;;;4.10;;
8230;SDS011;4156;50.908;6.974;2022-08-14T08:37:46;5.43;;;3.55;;
8230;SDS011;4156;50.908;6.974;2022-08-14T08:40:25;5.35;;;4.63;;
8230;SDS011;4156;50.908;6.974;2022-08-14T08:42:52;6.03;;;4.13;;
8230;SDS011;4156;50.908;6.974;2022-08-14T08:45:19;6.10;;;4.47;;
8230;SDS011;4156;50.908;6.974;2022-08-14T08:47:45;6.35;;;3.70;;
8230;SDS011;4156;50.908;6.974;2022-08-14T08:50:20;4.35;;;3.95;;
8230;SDS011;4156;50.908;6.974;2022-08-14T08:52:53;4.72;;;3.45;;
8230;SDS011;4156;50.908;6.974;2022-08-14T08:55:27;3.92;;;3.55;;
8230;SDS011;4156;50.908;6.974;2022-08-14T08:58:09;4.53;;;3.60;;
8230;SDS011;4156;50.908;6.974;2022-08-14T09:00:37;5.07;;;3.78;;
8230;SDS011;4156;50.908;6.974;2022-08-14T09:03:09;5.22;;;3.72;;
8230;SDS011;4156;50.908;6.974;2022-08-14T09:05:54;3.83;;;3.47;;
8230;SDS011;4156;50.908;6.974;2022-08-14T09:08:22;5.50;;;3.67;;
8230;SDS011;4156;50.908;6.974;2022-08-14T09:10:50;4.80;;;3.55;;
8230;SDS011;4156;50.908;6.974;2022-08-14T09:13:16;6.72;;;3.53;;
8230;SDS011;4156;50.908;6.974;2022-08-14T09:15:44;13.55;;;4.15;;
8230;SDS011;4156;50.908;6.974;2022-08-14T09:18:11;5.18;;;3.47;;
8230;SDS011;4156;50.908;6.974;2022-08-14T09:20:38;3.45;;;3.15;;
8230;SDS011;4156;50.908;6.974;2022-08-14T09:23:07;4.07;;;3.67;;
8230;SDS011;4156;50.908;6.974;2022-08-14T09:25:33;4.63;;;3.38;;
8230;SDS011;4156;50.908;6.974;2022-08-14T09:28:00;3.50;;;3.20;;
8230;SDS011;4156;50.908;6.974;2022-08-14T09:30:27;3.78;;;3.47;;
8230;SDS011;4156;50.908;6.974;2022-08-14T09:35:42;4.95;;;3.75;;
8230;SDS011;4156;50.908;6.974;2022-08-14T09:38:18;3.92;;;3.17;;
8230;SDS011;4156;50.908;6.974;2022-08-14T09:41:07;5.05;;;3.85;;
8230;SDS011;4156;50.908;6.974;2022-08-14T09:43:41;4.00;;;3.60;;
8230;SDS011;4156;50.908;6.974;2022-08-14T09:46:15;5.53;;;3.85;;
8230;SDS011;4156;50.908;6.974;2022-08-14T09:48:41;3.60;;;3.25;;
8230;SDS011;4156;50.908;6.974;2022-08-14T09:51:07;3.85;;;3.45;;
8230;SDS011;4156;50.908;6.974;2022-08-14T09:53:47;3.63;;;3.33;;
8230;SDS011;4156;50.908;6.974;2022-08-14T09:56:43;3.65;;;3.33;;
8230;SDS011;4156;50.908;6.974;2022-08-14T09:59:10;3.47;;;3.17;;
8230;SDS011;4156;50.908;6.974;2022-08-14T10:01:38;3.80;;;3.40;;
8230;SDS011;4156;50.908;6.974;2022-08-14T10:04:05;5.47;;;3.55;;
8230;SDS011;4156;50.908;6.974;2022-08-14T10:06:42;4.85;;;3.15;;
8230;SDS011;4156;50.908;6.974;2022-08-14T10:09:10;3.40;;;3.10;;
8230;SDS011;4156;50.908;6.974;2022-08-14T10:11:37;3.33;;;3.00;;
8230;SDS011;4156;50.908;6.974;2022-08-14T10:14:14;3.63;;;3.20;;
8230;SDS011;4156;50.908;6.974;2022-08-14T10:16:42;3.53;;;3.22;;
8230;SDS011;4156;50.908;6.974;2022-08-14T10:19:13;2.90;;;2.50;;
8230;SDS011;4156;50.908;6.974;2022-08-14T10:21:41;2.95;;;2.65;;
8230;SDS011;4156;50.908;6.974;2022-08-14T10:24:08;3.42;;;2.75;;
8230;SDS011;4156;50.908;6.974;2022-08-14T10:26:35;3.00;;;2.70;;
8230;SDS011;4156;50.908;6.974;2022-08-14T10:29:04;3.63;;;2.83;;
8230;SDS011;4156;50.908;6.974;2022-08-14T10:31:35;3.53;;;2.80;;
8230;SDS011;4156;50.908;6.974;2022-08-14T10:34:08;2.70;;;2.50;;
8230;SDS011;4156;50.908;6.974;2022-08-14T10:36:36;2.67;;;2.47;;
8230;SDS011;4156;50.908;6.974;2022-08-14T10:39:14;2.53;;;2.30;;
8230;SDS011;4156;50.908;6.974;2022-08-14T10:41:42;3.35;;;2.60;;
8230;SDS011;4156;50.908;6.974;2022-08-14T10:44:21;2.92;;;2.47;;
8230;SDS011;4156;50.908;6.974;2022-08-14T10:49:21;3.05;;;2.72;;
8230;SDS011;4156;50.908;6.974;2022-08-14T10:52:23;2.75;;;2.47;;
8230;SDS011;4156;50.908;6.974;2022-08-14T10:54:45;3.45;;;2.58;;
8230;SDS011;4156;50.908;6.974;2022-08-14T10:57:15;5.07;;;2.53;;
8230;SDS011;4156;50.908;6.974;2022-08-14T11:02:35;3.10;;;2.47;;
8230;SDS011;4156;50.908;6.974;2022-08-14T11:05:07;6.90;;;2.75;;
8230;SDS011;4156;50.908;6.974;2022-08-14T11:07:38;4.05;;;2.30;;
8230;SDS011;4156;50.908;6.974;2022-08-14T11:10:18;2.67;;;2.47;;
8230;SDS011;4156;50.908;6.974;2022-08-14T11:12:45;4.32;;;2.30;;
8230;SDS011;4156;50.908;6.974;2022-08-14T11:15:20;2.72;;;2.53;;
8230;SDS011;4156;50.908;6.974;2022-08-14T11:17:47;3.95;;;2.33;;
8230;SDS011;4156;50.908;6.974;2022-08-14T11:20:16;3.40;;;2.42;;
8230;SDS011;4156;50.908;6.974;2022-08-14T11:22:44;3.15;;;2.25;;
8230;SDS011;4156;50.908;6.974;2022-08-14T11:25:14;2.85;;;2.60;;
8230;SDS011;4156;50.908;6.974;2022-08-14T11:27:42;2.60;;;2.40;;
8230;SDS011;4156;50.908;6.974;2022-08-14T11:30:10;2.65;;;2.33;;
8230;SDS011;4156;50.908;6.974;2022-08-14T11:32:38;3.35;;;2.40;;
8230;SDS011;4156;50.908;6.974;2022-08-14T11:35:04;2.40;;;2.20;;
8230;SDS011;4156;50.908;6.974;2022-08-14T11:37:30;2.45;;;2.25;;
8230;SDS011;4156;50.908;6.974;2022-08-14T11:39:58;2.28;;;2.08;;
8230;SDS011;4156;50.908;6.974;2022-08-14T11:42:25;2.97;;;2.33;;
8230;SDS011;4156;50.908;6.974;2022-08-14T11:44:53;2.40;;;2.20;;
8230;SDS011;4156;50.908;6.974;2022-08-14T11:47:21;2.63;;;2.40;;
8230;SDS011;4156;50.908;6.974;2022-08-14T11:49:47;2.88;;;2.53;;
8230;SDS011;4156;50.908;6.974;2022-08-14T11:52:16;4.25;;;2.80;;
8230;SDS011;4156;50.908;6.974;2022-08-14T11:54:43;2.58;;;2.38;;
8230;SDS011;4156;50.908;6.974;2022-08-14T11:57:13;3.05;;;2.50;;
8230;SDS011;4156;50.908;6.974;2022-08-14T11:59:40;2.65;;;2.45;;
8230;SDS011;4156;50.908;6.974;2022-08-14T12:02:13;2.45;;;2.25;;
8230;SDS011;4156;50.908;6.974;2022-08-14T12:04:47;3.05;;;2.50;;
8230;SDS011;4156;50.908;6.974;2022-08-14T12:07:14;2.95;;;2.38;;
8230;SDS011;4156;50.908;6.974;2022-08-14T12:09:40;4.47;;;2.58;;
8230;SDS011;4156;50.908;6.974;2022-08-14T12:12:15;3.00;;;2.45;;
8230;SDS011;4156;50.908;6.974;2022-08-14T12:14:46;3.40;;;3.03;;
8230;SDS011;4156;50.908;6.974;2022-08-14T12:17:20;2.78;;;2.47;;
8230;SDS011;4156;50.908;6.974;2022-08-14T12:19:48;2.92;;;2.50;;
8230;SDS011;4156;50.908;6.974;2022-08-14T12:22:16;3.35;;;3.05;;
8230;SDS011;4156;50.908;6.974;2022-08-14T12:24:42;4.70;;;2.60;;
8230;SDS011;4156;50.908;6.974;2022-08-14T12:27:10;2.80;;;2.50;;
8230;SDS011;4156;50.908;6.974;2022-08-14T12:29:38;3.47;;;2.55;;
8230;SDS011;4156;50.908;6.974;2022-08-14T12:32:14;2.63;;;2.40;;
8230;SDS011;4156;50.908;6.974;2022-08-14T12:34:41;2.22;;;2.03;;
8230;SDS011;4156;50.908;6.974;2022-08-14T12:37:07;2.55;;;2.35;;
8230;SDS011;4156;50.908;6.974;2022-08-14T12:39:33;3.35;;;2.65;;
8230;SDS011;4156;50.908;6.974;2022-08-14T12:42:00;2.55;;;2.35;;
8230;SDS011;4156;50.908;6.974;2022-08-14T12:44:33;3.15;;;2.60;;
8230;SDS011;4156;50.908;6.974;2022-08-14T12:47:07;4.50;;;2.30;;
8230;SDS011;4156;50.908;6.974;2022-08-14T12:49:37;3.97;;;2.55;;
8230;SDS011;4156;50.908;6.974;2022-08-14T12:52:11;2.47;;;2.28;;
8230;SDS011;4156;50.908;6.974;2022-08-14T12:54:37;4.43;;;2.08;;
8230;SDS011;4156;50.908;6.974;2022-08-14T12:57:05;2.80;;;2.50;;
8230;SDS011;4156;50.908;6.974;2022-08-14T12:59:31;2.40;;;1.90;;
8230;SDS011;4156;50.908;6.974;2022-08-14T13:01:57;2.60;;;2.40;;
8230;SDS011;4156;50.908;6.974;2022-08-14T13:04:24;2.67;;;2.40;;
8230;SDS011;4156;50.908;6.974;2022-08-14T13:06:49;2.72;;;2.45;;
8230;SDS011;4156;50.908;6.974;2022-08-14T13:09:16;3.53;;;2.55;;
8230;SDS011;4156;50.908;6.974;2022-08-14T13:11:49;2.90;;;2.53;;
8230;SDS011;4156;50.908;6.974;2022-08-14T13:14:22;2.33;;;2.13;;
8230;SDS011;4156;50.908;6.974;2022-08-14T13:16:52;2.50;;;2.30;;
8230;SDS011;4156;50.908;6.974;2022-08-14T13:19:19;2.60;;;2.28;;
8230;SDS011;4156;50.908;6.974;2022-08-14T13:21:46;2.72;;;2.50;;
8230;SDS011;4156;50.908;6.974;2022-08-14T13:24:13;2.70;;;2.50;;
8230;SDS011;4156;50.908;6.974;2022-08-14T13:26:46;2.63;;;2.42;;
8230;SDS011;4156;50.908;6.974;2022-08-14T13:29:18;4.10;;;2.30;;
8230;SDS011;4156;50.908;6.974;2022-08-14T13:31:44;2.92;;;2.40;;
8230;SDS011;4156;50.908;6.974;2022-08-14T13:34:15;2.22;;;2.03;;
8230;SDS011;4156;50.908;6.974;2022-08-14T13:37:00;3.08;;;2.30;;
8230;SDS011;4156;50.908;6.974;2022-08-14T13:39:31;2.30;;;2.10;;
8230;SDS011;4156;50.908;6.974;2022-08-14T13:41:57;4.70;;;2.53;;
8230;SDS011;4156;50.908;6.974;2022-08-14T13:44:27;2.63;;;2.20;;
8230;SDS011;4156;50.908;6.974;2022-08-14T13:46:53;2.38;;;2.15;;
8230;SDS011;4156;50.908;6.974;2022-08-14T13:49:19;3.60;;;2.40;;
8230;SDS011;4156;50.908;6.974;2022-08-14T13:51:48;2.83;;;2.53;;
8230;SDS011;4156;50.908;6.974;2022-08-14T13:54:17;2.22;;;2.03;;
8230;SDS011;4156;50.908;6.974;2022-08-14T13:56:45;3.00;;;2.60;;
8230;SDS011;4156;50.908;6.974;2022-08-14T13:59:11;2.78;;;2.28;;
8230;SDS011;4156;50.908;6.974;2022-08-14T14:01:38;3.92;;;2.58;;
8230;SDS011;4156;50.908;6.974;2022-08-14T14:04:08;2.60;;;2.40;;
8230;SDS011;4156;50.908;6.974;2022-08-14T14:06:38;2.78;;;2.33;;
8230;SDS011;4156;50.908;6.974;2022-08-14T14:09:04;2.95;;;2.38;;
8230;SDS011;4156;50.908;6.974;2022-08-14T14:11:32;2.47;;;2.28;;
8230;SDS011;4156;50.908;6.974;2022-08-14T14:13:57;2.38;;;2.15;;
8230;SDS011;4156;50.908;6.974;2022-08-14T14:16:25;3.10;;;2.30;;
8230;SDS011;4156;50.908;6.974;2022-08-14T14:18:52;2.78;;;2.40;;
8230;SDS011;4156;50.908;6.974;2022-08-14T14:21:20;2.88;;;2.33;;
8230;SDS011;4156;50.908;6.974;2022-08-14T14:23:52;4.10;;;2.35;;
8230;SDS011;4156;50.908;6.974;2022-08-14T14:26:19;2.25;;;2.05;;
8230;SDS011;4156;50.908;6.974;2022-08-14T14:28:49;2.30;;;2.10;;
8230;SDS011;4156;50.908;6.974;2022-08-14T14:31:20;3.92;;;2.15;;
8230;SDS011;4156;50.908;6.974;2022-08-14T14:33:55;2.30;;;2.10;;
8230;SDS011;4156;50.908;6.974;2022-08-14T14:36:32;2.72;;;2.20;;
8230;SDS011;4156;50.908;6.974;2022-08-14T14:38:59;1.88;;;1.70;;
8230;SDS011;4156;50.908;6.974;2022-08-14T14:41:28;7.30;;;2.50;;
8230;SDS011;4156;50.908;6.974;2022-08-14T14:43:54;2.50;;;2.30;;
8230;SDS011;4156;50.908;6.974;2022-08-14T14:46:23;2.28;;;2.08;;
8230;SDS011;4156;50.908;6.974;2022-08-14T14:48:50;2.30;;;1.98;;
8230;SDS011;4156;50.908;6.974;2022-08-14T14:51:16;2.47;;;2.28;;
8230;SDS011;4156;50.908;6.974;2022-08-14T14:53:42;3.00;;;2.00;;
8230;SDS011;4156;50.908;6.974;2022-08-14T14:56:11;2.92;;;1.90;;
8230;SDS011;4156;50.908;6.974;2022-08-14T14:58:37;2.17;;;1.98;;
8230;SDS011;4156;50.908;6.974;2022-08-14T15:01:07;2.20;;;2.00;;
8230;SDS011;4156;50.908;6.974;2022-08-14T15:03:34;2.42;;;2.10;;
8230;SDS011;4156;50.908;6.974;2022-08-14T15:06:01;1.90;;;1.73;;
8230;SDS011;4156;50.908;6.974;2022-08-14T15:08:27;2.60;;;2.40;;
8230;SDS011;4156;50.908;6.974;2022-08-14T15:10:54;2.22;;;2.00;;
8230;SDS011;4156;50.908;6.974;2022-08-14T15:13:21;2.40;;;2.20;;
8230;SDS011;4156;50.908;6.974;2022-08-14T15:15:46;2.20;;;2.00;;
8230;SDS011;4156;50.908;6.974;2022-08-14T15:18:12;3.35;;;2.22;;
8230;SDS011;4156;50.908;6.974;2022-08-14T15:20:38;2.72;;;2.35;;
8230;SDS011;4156;50.908;6.974;2022-08-14T15:23:03;4.45;;;2.50;;
8230;SDS011;4156;50.908;6.974;2022-08-14T15:25:30;3.00;;;2.20;;
8230;SDS011;4156;50.908;6.974;2022-08-14T15:27:56;2.50;;;2.00;;
8230;SDS011;4156;50.908;6.974;2022-08-14T15:30:22;2.50;;;2.20;;
8230;SDS011;4156;50.908;6.974;2022-08-14T15:32:48;2.30;;;2.10;;
8230;SDS011;4156;50.908;6.974;2022-08-14T15:35:14;2.30;;;2.10;;
8230;SDS011;4156;50.908;6.974;2022-08-14T15:37:39;2.17;;;1.98;;